createdAt,value
2019-03-03T00:02:09.230Z,74.56
2019-03-03T00:04:39.221Z,74.41
2019-03-03T00:07:10.305Z,74.92
2019-03-03T00:09:41.239Z,74.73
2019-03-03T00:12:11.292Z,74.69
2019-03-03T00:14:41.306Z,74.07
2019-03-03T00:17:11.229Z,74.59
2019-03-03T00:19:41.326Z,75.05
2019-03-03T00:22:11.924Z,75.42
2019-03-03T00:24:41.949Z,75.18
2019-03-03T00:27:11.935Z,75.62
2019-03-03T00:29:41.807Z,75.13
2019-03-03T00:32:11.747Z,75.15
2019-03-03T00:34:41.802Z,75.27
2019-03-03T00:37:23.853Z,74.60
2019-03-03T00:40:15.612Z,75.16
2019-03-03T00:42:54.325Z,76.96
2019-03-03T00:45:58.709Z,77.79
2019-03-03T00:48:34.738Z,77.83
2019-03-03T00:51:10.997Z,78.04
2019-03-03T00:54:09.076Z,77.48
2019-03-03T00:56:45.213Z,77.23
2019-03-03T00:59:22.951Z,77.19
2019-03-03T01:02:01.498Z,77.41
2019-03-03T01:04:49.332Z,76.93
2019-03-03T01:07:27.904Z,76.51
2019-03-03T01:10:14.944Z,76.36
2019-03-03T01:13:02.252Z,75.48
2019-03-03T01:15:52.277Z,74.55
2019-03-03T01:18:38.603Z,74.48
2019-03-03T01:21:14.818Z,74.57
2019-03-03T01:24:12.559Z,74.47
2019-03-03T01:26:42.469Z,74.29
2019-03-03T01:29:13.188Z,74.25
2019-03-03T01:31:43.077Z,74.09
2019-03-03T01:34:14.836Z,74.33
2019-03-03T01:36:44.717Z,73.87
2019-03-03T01:39:14.672Z,73.79
2019-03-03T01:41:44.582Z,73.94
2019-03-03T01:44:14.526Z,73.93
2019-03-03T01:46:44.498Z,73.82
2019-03-03T01:49:14.389Z,73.69
2019-03-03T01:51:44.478Z,73.67
2019-03-03T01:54:15.508Z,73.36
2019-03-03T01:56:45.375Z,73.05
2019-03-03T01:59:15.269Z,73.25
2019-03-03T02:01:45.207Z,73.46
2019-03-03T02:04:16.154Z,73.32
2019-03-03T02:06:46.106Z,73.57
2019-03-03T02:09:16.072Z,73.71
2019-03-03T02:11:46.097Z,73.67
2019-03-03T02:14:16.017Z,73.81
2019-03-03T02:16:45.907Z,73.72
2019-03-03T02:19:15.884Z,73.62
2019-03-03T02:21:45.869Z,73.76
2019-03-03T02:24:16.193Z,74.07
2019-03-03T02:26:46.020Z,74.12
2019-03-03T02:29:15.972Z,74.33
2019-03-03T02:31:45.950Z,74.62
2019-03-03T02:34:15.892Z,74.49
2019-03-03T02:36:45.855Z,73.88
2019-03-03T02:39:19.405Z,74.27
2019-03-03T02:41:49.295Z,74.02
2019-03-03T02:44:19.414Z,73.87
2019-03-03T02:46:49.445Z,74.45
2019-03-03T02:49:19.465Z,74.36
2019-03-03T02:51:49.332Z,74.15
2019-03-03T02:54:19.289Z,73.98
2019-03-03T02:56:49.222Z,74.19
2019-03-03T02:59:19.133Z,74.27
2019-03-03T03:01:55.832Z,74.45
2019-03-03T03:04:26.405Z,73.98
2019-03-03T03:07:01.907Z,73.98
2019-03-03T03:09:47.844Z,74.37
2019-03-03T03:12:29.482Z,74.56
2019-03-03T03:15:27.784Z,74.45
2019-03-03T03:18:13.758Z,74.22
2019-03-03T03:20:51.810Z,74.23
2019-03-03T03:23:35.200Z,74.42
2019-03-03T03:26:22.541Z,73.84
2019-03-03T03:28:59.706Z,74.56
2019-03-03T03:32:03.649Z,74.70
2019-03-03T03:34:38.227Z,74.56
2019-03-03T03:37:14.225Z,73.47
2019-03-03T03:40:12.287Z,73.81
2019-03-03T03:43:13.176Z,74.53
2019-03-03T03:46:09.633Z,74.87
2019-03-03T03:49:02.432Z,75.13
2019-03-03T03:51:50.923Z,74.70
2019-03-03T03:54:58.113Z,74.88
2019-03-03T03:57:47.179Z,74.54
2019-03-03T04:00:32.886Z,74.64
2019-03-03T04:03:37.425Z,74.32
2019-03-03T04:06:29.321Z,74.57
2019-03-03T04:09:16.894Z,74.09
2019-03-03T04:11:57.323Z,74.58
2019-03-03T04:14:43.253Z,74.42
2019-03-03T04:17:28.993Z,74.38
2019-03-03T04:20:18.040Z,74.50
2019-03-03T04:23:05.856Z,74.42
2019-03-03T04:25:53.566Z,74.27
2019-03-03T04:28:49.031Z,74.01
2019-03-03T04:31:53.410Z,74.60
2019-03-03T04:34:44.958Z,74.56
2019-03-03T04:37:32.388Z,74.89
2019-03-03T04:40:13.312Z,74.97
2019-03-03T04:43:11.377Z,74.91
2019-03-03T04:45:54.403Z,74.83
2019-03-03T04:48:29.705Z,74.56
2019-03-03T04:51:12.665Z,75.07
2019-03-03T04:54:13.542Z,74.43
2019-03-03T04:57:20.718Z,73.77
2019-03-03T05:00:15.417Z,73.46
2019-03-03T05:03:16.532Z,73.77
2019-03-03T05:06:11.656Z,73.40
2019-03-03T05:08:55.164Z,73.75
2019-03-03T05:12:23.461Z,73.14
2019-03-03T05:14:56.562Z,72.98
2019-03-03T05:17:33.485Z,72.93
2019-03-03T05:20:03.653Z,72.53
2019-03-03T05:22:33.592Z,72.35
2019-03-03T05:25:03.567Z,71.41
2019-03-03T05:27:33.550Z,71.29
2019-03-03T05:30:03.843Z,71.81
2019-03-03T05:32:33.805Z,71.28
2019-03-03T05:35:03.790Z,71.99
2019-03-03T05:37:33.656Z,72.14
2019-03-03T05:40:03.797Z,71.58
2019-03-03T05:42:33.748Z,71.36
2019-03-03T05:45:03.761Z,71.50
2019-03-03T05:47:33.584Z,72.26
2019-03-03T05:50:03.668Z,72.12
2019-03-03T05:52:33.488Z,72.68
2019-03-03T05:55:03.448Z,73.08
2019-03-03T05:57:33.336Z,73.55
2019-03-03T06:00:03.444Z,73.90
2019-03-03T06:02:33.286Z,74.17
2019-03-03T06:05:03.177Z,74.26
2019-03-03T06:07:33.171Z,74.19
2019-03-03T06:10:03.198Z,74.15
2019-03-03T06:12:33.016Z,73.70
2019-03-03T06:15:03.583Z,73.85
2019-03-03T06:17:33.492Z,73.73
2019-03-03T06:20:03.527Z,73.11
2019-03-03T06:22:33.409Z,73.53
2019-03-03T06:25:03.356Z,72.39
2019-03-03T06:27:33.193Z,71.46
2019-03-03T06:30:03.089Z,70.65
2019-03-03T06:32:32.943Z,70.67
2019-03-03T06:35:02.885Z,70.72
2019-03-03T06:37:32.749Z,70.54
2019-03-03T06:40:02.653Z,70.91
2019-03-03T06:42:32.599Z,70.81
2019-03-03T06:45:02.487Z,70.34
2019-03-03T06:47:32.440Z,70.02
2019-03-03T06:50:03.375Z,69.42
2019-03-03T06:52:33.285Z,68.88
2019-03-03T06:55:03.118Z,67.52
2019-03-03T06:57:33.060Z,68.59
2019-03-03T07:00:03.406Z,68.30
2019-03-03T07:02:33.404Z,67.74
2019-03-03T07:05:03.526Z,67.25
2019-03-03T07:07:33.412Z,66.30
2019-03-03T07:10:03.354Z,65.55
2019-03-03T07:12:33.278Z,64.84
2019-03-03T07:15:03.257Z,64.24
2019-03-03T07:17:33.244Z,63.26
2019-03-03T07:20:03.226Z,62.60
2019-03-03T07:22:33.196Z,62.64
2019-03-03T07:25:03.180Z,62.25
2019-03-03T07:27:33.143Z,61.87
2019-03-03T07:30:03.161Z,61.65
2019-03-03T07:32:34.913Z,61.46
2019-03-03T07:35:05.043Z,61.35
2019-03-03T07:37:34.957Z,61.12
2019-03-03T07:40:05.843Z,60.82
2019-03-03T07:42:35.781Z,60.83
2019-03-03T07:45:06.288Z,60.96
2019-03-03T07:47:36.179Z,60.85
2019-03-03T07:50:06.486Z,60.43
2019-03-03T07:52:36.350Z,60.31
2019-03-03T07:55:06.724Z,60.05
2019-03-03T07:57:36.696Z,59.77
2019-03-03T08:00:08.611Z,59.23
2019-03-03T08:02:38.648Z,58.36
2019-03-03T08:05:08.741Z,58.21
2019-03-03T08:07:38.786Z,58.34
2019-03-03T08:10:09.849Z,58.37
2019-03-03T08:12:39.813Z,58.53
2019-03-03T08:15:09.804Z,58.96
2019-03-03T08:17:40.405Z,58.37
2019-03-03T08:20:11.793Z,58.15
2019-03-03T08:22:41.769Z,58.02
2019-03-03T08:25:12.861Z,58.11
2019-03-03T08:27:43.890Z,57.95
2019-03-03T08:30:13.900Z,57.35
2019-03-03T08:32:43.914Z,57.78
2019-03-03T08:35:14.646Z,57.60
2019-03-03T08:37:44.635Z,57.78
2019-03-03T08:40:15.530Z,57.73
2019-03-03T08:42:53.468Z,57.32
2019-03-03T08:45:45.924Z,57.02
2019-03-03T08:48:33.274Z,57.29
2019-03-03T08:51:15.184Z,57.66
2019-03-03T08:53:53.482Z,56.78
2019-03-03T08:56:34.099Z,56.56
2019-03-03T08:59:10.378Z,56.43
2019-03-03T09:01:58.520Z,56.20
2019-03-03T09:04:53.600Z,55.65
2019-03-03T09:07:35.352Z,55.28
2019-03-03T09:10:13.015Z,54.84
2019-03-03T09:12:51.470Z,54.30
2019-03-03T09:15:46.242Z,54.55
2019-03-03T09:18:35.251Z,54.08
2019-03-03T09:21:30.101Z,53.55
2019-03-03T09:24:22.035Z,53.36
2019-03-03T09:27:04.780Z,53.28
2019-03-03T09:30:02.938Z,52.79
2019-03-03T09:32:51.968Z,53.06
2019-03-03T09:35:33.769Z,51.99
2019-03-03T09:38:12.113Z,52.50
2019-03-03T09:41:05.434Z,51.77
2019-03-03T09:43:46.575Z,51.85
2019-03-03T09:46:26.671Z,50.13
2019-03-03T09:49:27.994Z,51.46
2019-03-03T09:52:14.543Z,51.38
2019-03-03T09:55:07.387Z,50.43
2019-03-03T09:57:45.897Z,51.37
2019-03-03T10:00:34.293Z,48.95
2019-03-03T10:03:16.974Z,49.90
2019-03-03T10:06:01.200Z,48.25
2019-03-03T10:09:03.460Z,48.06
2019-03-03T10:11:52.869Z,47.21
2019-03-03T10:14:40.698Z,46.94
2019-03-03T10:17:29.874Z,47.71
2019-03-03T10:20:21.750Z,47.10
2019-03-03T10:23:16.829Z,46.50
2019-03-03T10:26:13.154Z,46.52
2019-03-03T10:28:56.892Z,45.17
2019-03-03T10:31:39.894Z,45.26
2019-03-03T10:34:15.007Z,45.19
2019-03-03T10:37:22.318Z,44.61
2019-03-03T10:40:12.724Z,43.89
2019-03-03T10:43:00.150Z,44.51
2019-03-03T10:45:50.197Z,43.73
2019-03-03T10:48:37.964Z,42.76
2019-03-03T10:51:25.837Z,42.17
2019-03-03T10:54:06.939Z,42.04
2019-03-03T10:56:46.147Z,41.75
2019-03-03T10:59:30.016Z,41.34
2019-03-03T11:02:14.964Z,41.82
2019-03-03T11:05:13.103Z,41.03
2019-03-03T11:08:10.194Z,41.07
2019-03-03T11:10:57.768Z,41.30
2019-03-03T11:13:47.141Z,41.26
2019-03-03T11:16:43.570Z,41.32
2019-03-03T11:19:20.194Z,40.68
2019-03-03T11:22:09.192Z,40.62
2019-03-03T11:24:57.328Z,41.03
2019-03-03T11:27:36.061Z,41.26
2019-03-03T11:30:09.366Z,41.67
2019-03-03T11:32:56.953Z,42.16
2019-03-03T11:35:51.702Z,41.98
2019-03-03T11:38:49.774Z,43.41
2019-03-03T11:41:38.764Z,43.97
2019-03-03T11:44:21.397Z,43.74
2019-03-03T11:47:07.844Z,43.87
2019-03-03T11:50:03.238Z,43.83
2019-03-03T11:52:45.717Z,44.22
2019-03-03T11:55:44.060Z,43.77
2019-03-03T11:58:31.651Z,44.13
2019-03-03T12:01:20.748Z,44.90
2019-03-03T12:04:06.887Z,44.63
2019-03-03T12:06:44.224Z,45.53
2019-03-03T12:09:32.227Z,45.54
2019-03-03T12:12:36.277Z,45.37
2019-03-03T12:15:35.157Z,45.23
2019-03-03T12:18:20.463Z,45.10
2019-03-03T12:21:12.491Z,45.02
2019-03-03T12:23:54.396Z,45.09
2019-03-03T12:26:43.003Z,44.61
2019-03-03T12:29:22.865Z,44.59
2019-03-03T12:32:11.574Z,44.49
2019-03-03T12:35:06.684Z,44.03
2019-03-03T12:37:48.120Z,44.78
2019-03-03T12:40:37.035Z,44.63
2019-03-03T12:43:16.427Z,44.67
2019-03-03T12:45:56.719Z,44.76
2019-03-03T12:48:36.715Z,44.87
2019-03-03T12:51:24.351Z,44.70
2019-03-03T12:54:05.112Z,44.13
2019-03-03T12:57:00.098Z,43.04
2019-03-03T12:59:41.316Z,43.01
2019-03-03T13:02:29.147Z,42.93
2019-03-03T13:05:18.114Z,42.65
2019-03-03T13:07:54.628Z,41.37
2019-03-03T13:10:42.161Z,42.87
2019-03-03T13:13:32.646Z,42.79
2019-03-03T13:16:27.568Z,42.39
2019-03-03T13:19:16.481Z,42.60
2019-03-03T13:22:18.069Z,42.94
2019-03-03T13:24:57.848Z,43.92
2019-03-03T13:27:54.327Z,43.48
2019-03-03T13:30:55.398Z,43.86
2019-03-03T13:33:50.988Z,43.09
2019-03-03T13:36:38.931Z,43.55
2019-03-03T13:39:48.128Z,43.42
2019-03-03T13:42:27.738Z,42.77
2019-03-03T13:44:57.608Z,42.93
2019-03-03T13:47:28.262Z,43.10
2019-03-03T13:49:58.262Z,43.20
2019-03-03T13:52:28.283Z,43.00
2019-03-03T13:54:58.279Z,43.44
2019-03-03T13:57:30.866Z,43.32
2019-03-03T14:00:02.305Z,43.69
2019-03-03T14:02:34.979Z,44.08
2019-03-03T14:05:05.845Z,43.90
2019-03-03T14:07:35.810Z,43.25
2019-03-03T14:10:07.795Z,43.76
2019-03-03T14:12:38.484Z,43.83
2019-03-03T14:15:10.002Z,43.66
2019-03-03T14:17:40.366Z,44.01
2019-03-03T14:20:13.448Z,43.67
2019-03-03T14:22:43.418Z,43.51
2019-03-03T14:25:14.000Z,43.60
2019-03-03T14:27:44.060Z,43.14
2019-03-03T14:30:16.444Z,43.03
2019-03-03T14:32:46.472Z,43.34
2019-03-03T14:35:16.874Z,43.72
2019-03-03T14:37:46.857Z,43.25
2019-03-03T14:40:17.763Z,43.14
2019-03-03T14:42:48.029Z,43.56
2019-03-03T14:45:18.361Z,42.87
2019-03-03T14:47:49.479Z,43.07
2019-03-03T14:50:19.926Z,42.99
2019-03-03T14:52:50.385Z,42.80
2019-03-03T14:55:20.523Z,42.70
2019-03-03T14:57:50.488Z,42.58
2019-03-03T15:00:27.946Z,43.40
2019-03-03T15:02:59.412Z,43.38
2019-03-03T15:05:29.618Z,43.03
2019-03-03T15:07:59.670Z,42.75
2019-03-03T15:10:29.672Z,42.76
2019-03-03T15:13:00.196Z,42.73
2019-03-03T15:15:31.115Z,42.73
2019-03-03T15:18:01.285Z,43.01
2019-03-03T15:20:31.770Z,43.18
2019-03-03T15:23:01.746Z,43.25
2019-03-03T15:25:31.820Z,42.99
2019-03-03T15:28:01.825Z,42.81
2019-03-03T15:30:32.443Z,42.51
2019-03-03T15:33:02.362Z,42.55
2019-03-03T15:35:32.388Z,42.13
2019-03-03T15:38:02.414Z,42.04
2019-03-03T15:40:32.485Z,42.20
2019-03-03T15:43:02.583Z,41.83
2019-03-03T15:45:32.624Z,41.25
2019-03-03T15:48:02.650Z,41.69
2019-03-03T15:50:32.639Z,41.14
2019-03-03T15:53:02.776Z,41.50
2019-03-03T15:55:32.869Z,41.21
2019-03-03T15:58:02.846Z,41.32
2019-03-03T16:00:33.866Z,41.67
2019-03-03T16:03:04.242Z,41.71
2019-03-03T16:05:34.188Z,41.96
2019-03-03T16:08:04.229Z,41.79
2019-03-03T16:10:34.071Z,42.04
2019-03-03T16:13:04.144Z,42.09
2019-03-03T16:15:34.141Z,42.14
2019-03-03T16:18:04.139Z,42.21
2019-03-03T16:20:34.159Z,42.09
2019-03-03T16:23:04.205Z,41.99
2019-03-03T16:25:34.233Z,42.46
2019-03-03T16:28:04.240Z,42.50
2019-03-03T16:30:34.264Z,42.37
2019-03-03T16:33:04.199Z,42.66
2019-03-03T16:35:35.227Z,43.10
2019-03-03T16:38:05.221Z,42.99
2019-03-03T16:40:39.635Z,42.82
2019-03-03T16:43:07.045Z,43.19
2019-03-03T16:45:37.019Z,43.40
2019-03-03T16:48:06.990Z,43.55
2019-03-03T16:50:37.034Z,44.03
2019-03-03T16:53:07.065Z,44.11
2019-03-03T16:55:37.027Z,44.11
2019-03-03T16:58:07.063Z,44.12
2019-03-03T17:00:36.960Z,44.53
2019-03-03T17:03:07.020Z,44.67
2019-03-03T17:05:37.082Z,45.09
2019-03-03T17:08:07.043Z,45.17
2019-03-03T17:10:36.907Z,45.30
2019-03-03T17:13:07.037Z,45.58
2019-03-03T17:15:37.025Z,45.70
2019-03-03T17:18:07.126Z,45.86
2019-03-03T17:20:36.988Z,46.07
2019-03-03T17:23:06.977Z,46.12
2019-03-03T17:25:36.981Z,45.91
2019-03-03T17:28:07.016Z,46.13
2019-03-03T17:30:37.118Z,46.06
2019-03-03T17:33:07.050Z,46.28
2019-03-03T17:35:37.011Z,46.24
2019-03-03T17:38:07.013Z,46.38
2019-03-03T17:40:36.899Z,46.40
2019-03-03T17:43:06.924Z,46.28
2019-03-03T17:45:37.047Z,46.27
2019-03-03T17:48:07.058Z,46.27
2019-03-03T17:50:37.115Z,46.59
2019-03-03T17:53:07.040Z,46.29
2019-03-03T17:55:37.110Z,46.22
2019-03-03T17:58:07.050Z,46.82
2019-03-03T18:00:38.677Z,46.66
2019-03-03T18:03:08.664Z,47.01
2019-03-03T18:05:38.732Z,47.19
2019-03-03T18:08:08.754Z,47.75
2019-03-03T18:10:38.788Z,47.18
2019-03-03T18:13:08.790Z,47.24
2019-03-03T18:15:38.760Z,47.44
2019-03-03T18:18:08.731Z,47.62
2019-03-03T18:20:38.772Z,47.88
2019-03-03T18:23:08.812Z,47.86
2019-03-03T18:25:39.517Z,48.13
2019-03-03T18:28:10.336Z,48.07
2019-03-03T18:30:40.659Z,48.24
2019-03-03T18:33:11.704Z,48.35
2019-03-03T18:35:41.535Z,48.61
2019-03-03T18:38:11.428Z,48.87
2019-03-03T18:40:41.416Z,48.78
2019-03-03T18:43:12.432Z,48.59
2019-03-03T18:45:42.418Z,48.83
2019-03-03T18:48:12.688Z,48.43
2019-03-03T18:50:42.671Z,48.35
2019-03-03T18:53:12.741Z,48.95
2019-03-03T18:55:43.763Z,49.00
2019-03-03T18:58:13.746Z,49.33
2019-03-03T19:00:43.756Z,48.70
2019-03-03T19:03:13.882Z,48.96
2019-03-03T19:05:43.891Z,48.44
2019-03-03T19:08:13.767Z,47.76
2019-03-03T19:10:43.711Z,47.88
2019-03-03T19:13:13.734Z,47.54
2019-03-03T19:15:43.778Z,46.91
2019-03-03T19:18:13.778Z,47.07
2019-03-03T19:20:43.720Z,47.18
2019-03-03T19:23:13.605Z,47.61
2019-03-03T19:25:43.620Z,46.46
2019-03-03T19:28:13.487Z,47.02
2019-03-03T19:30:43.520Z,47.56
2019-03-03T19:33:35.022Z,47.13
2019-03-03T19:36:06.142Z,47.11
2019-03-03T19:38:36.135Z,47.60
2019-03-03T19:41:06.173Z,47.98
2019-03-03T19:43:36.141Z,48.15
2019-03-03T19:46:06.610Z,48.29
2019-03-03T19:48:36.684Z,47.91
2019-03-03T19:51:06.803Z,47.66
2019-03-03T19:53:36.864Z,47.75
2019-03-03T19:56:06.900Z,48.46
2019-03-03T19:58:36.883Z,48.57
2019-03-03T20:01:07.235Z,48.73
2019-03-03T20:03:37.195Z,48.85
2019-03-03T20:06:07.248Z,49.00
2019-03-03T20:08:37.149Z,49.08
2019-03-03T20:11:08.043Z,49.31
2019-03-03T20:13:38.167Z,49.60
2019-03-03T20:16:08.101Z,49.60
2019-03-03T20:18:38.128Z,48.81
2019-03-03T20:21:08.110Z,48.54
2019-03-03T20:23:37.993Z,48.91
2019-03-03T20:26:08.394Z,48.94
2019-03-03T20:28:38.676Z,48.87
2019-03-03T20:31:08.721Z,48.91
2019-03-03T20:33:38.689Z,48.37
2019-03-03T20:36:09.794Z,47.96
2019-03-03T20:38:39.792Z,47.54
2019-03-03T20:41:09.759Z,47.48
2019-03-03T20:43:39.745Z,47.23
2019-03-03T20:46:09.800Z,46.87
2019-03-03T20:48:39.823Z,46.45
2019-03-03T20:51:09.774Z,46.15
2019-03-03T20:53:39.783Z,46.33
2019-03-03T20:56:09.773Z,45.88
2019-03-03T20:58:39.799Z,45.42
2019-03-03T21:01:09.777Z,45.44
2019-03-03T21:03:39.689Z,45.53
2019-03-03T21:06:09.746Z,45.51
2019-03-03T21:08:39.705Z,45.22
2019-03-03T21:11:09.578Z,45.13
2019-03-03T21:13:39.488Z,44.87
2019-03-03T21:16:09.458Z,45.11
2019-03-03T21:18:39.320Z,45.16
2019-03-03T21:21:09.684Z,44.62
2019-03-03T21:23:39.614Z,44.88
2019-03-03T21:26:09.636Z,44.83
2019-03-03T21:28:39.488Z,45.12
2019-03-03T21:31:09.521Z,44.66
2019-03-03T21:33:39.422Z,44.77
2019-03-03T21:36:09.269Z,44.85
2019-03-03T21:38:39.153Z,45.17
2019-03-03T21:41:09.044Z,45.28
2019-03-03T21:43:39.020Z,45.09
2019-03-03T21:46:09.019Z,45.51
2019-03-03T21:48:38.972Z,45.56
2019-03-03T21:51:08.997Z,45.96
2019-03-03T21:53:38.958Z,45.82
2019-03-03T21:56:08.867Z,46.53
2019-03-03T21:58:38.889Z,47.04
2019-03-03T22:01:08.859Z,47.21
2019-03-03T22:03:40.500Z,47.84
2019-03-03T22:06:10.401Z,48.37
2019-03-03T22:08:40.283Z,48.94
2019-03-03T22:11:10.337Z,49.35
2019-03-03T22:13:40.386Z,49.59
2019-03-03T22:16:10.328Z,49.51
2019-03-03T22:18:40.348Z,49.68
2019-03-03T22:21:10.361Z,50.09
2019-03-03T22:23:40.223Z,50.00
2019-03-03T22:26:10.219Z,49.96
2019-03-03T22:28:40.175Z,50.29
2019-03-03T22:31:10.293Z,50.14
2019-03-03T22:33:40.327Z,50.19
2019-03-03T22:36:10.504Z,50.43
2019-03-03T22:38:41.574Z,49.81
2019-03-03T22:41:11.546Z,50.39
2019-03-03T22:43:41.382Z,50.60
2019-03-03T22:46:11.329Z,50.51
2019-03-03T22:48:41.187Z,50.68
2019-03-03T22:51:11.147Z,51.37
2019-03-03T22:53:41.052Z,51.66
2019-03-03T22:56:11.011Z,52.22
2019-03-03T22:58:40.924Z,52.74
2019-03-03T23:01:15.357Z,52.89
2019-03-03T23:04:17.003Z,53.43
2019-03-03T23:06:55.440Z,53.49
2019-03-03T23:10:11.159Z,53.61
2019-03-03T23:12:49.345Z,54.01
2019-03-03T23:15:39.202Z,54.02
2019-03-03T23:18:27.756Z,54.71
2019-03-03T23:21:25.631Z,54.29
2019-03-03T23:24:31.637Z,54.18
2019-03-03T23:27:01.452Z,54.28
2019-03-03T23:29:31.419Z,54.08
2019-03-03T23:32:01.325Z,53.77
2019-03-03T23:34:31.330Z,53.91
2019-03-03T23:37:01.290Z,53.53
2019-03-03T23:39:31.119Z,56.03
2019-03-03T23:42:00.996Z,48.12
2019-03-03T23:44:30.912Z,47.93
2019-03-03T23:47:00.843Z,47.34
2019-03-03T23:49:30.740Z,47.31
2019-03-03T23:52:00.632Z,45.98
2019-03-03T23:54:30.541Z,44.82
2019-03-03T23:57:00.486Z,44.78
2019-03-03T23:59:30.344Z,45.69
